Wetterdaten: aktuell Samstag, 20.07.2019 09:35
Datum Zeit Temp. 2m rel. Feuchte Luftdruck Regen Wind Richtung Richtung Sonne ET UV-Index Solar Taupunkt Ben
20.07.2019 09:35 23,3 C 64 % 1010,4 hPa 0,0 mm 4,9 km/h (1 Bft) O 84 5 min 0,1 mm 0,0 UV-I 300 W/m 16,1 C 17,8 km/h (3 Bft)
20.07.2019 08:35 20,3 C 73 % 1010,6 hPa 0,0 mm 4,3 km/h (1 Bft) O 84 0 min 0,0 mm 0,0 UV-I 85 W/m 15,3 C 17,8 km/h (3 Bft)
20.07.2019 07:35 17,6 C 83 % 1010,9 hPa 0,0 mm 3,0 km/h (1 Bft) O 84 0 min 0,0 mm 0,0 UV-I 47 W/m 14,7 C 11,1 km/h (2 Bft)
20.07.2019 06:35 16,7 C 83 % 1011,4 hPa 0,0 mm 3,5 km/h (1 Bft) O 84 0 min 0,0 mm 0,0 UV-I 23 W/m 13,8 C 13,3 km/h (3 Bft)
20.07.2019 05:35 16,6 C 82 % 1011,6 hPa 0,0 mm 0,9 km/h (0 Bft) O 84 0 min 0,0 mm 0,0 UV-I 0 W/m 13,5 C 4,4 km/h (1 Bft)
20.07.2019 04:35 17,0 C 80 % 1011,9 hPa 0,0 mm 0,9 km/h (0 Bft) O 84 0 min 0,0 mm 0,0 UV-I 0 W/m 13,5 C 4,4 km/h (1 Bft)
20.07.2019 03:30 18,0 C 74 % 1012,3 hPa 0,0 mm 2,4 km/h (1 Bft) O 84 0 min 0,0 mm 0,0 UV-I 0 W/m 13,3 C 8,9 km/h (2 Bft)
20.07.2019 02:30 18,5 C 71 % 1012,4 hPa 0,0 mm 1,8 km/h (1 Bft) O 84 0 min 0,0 mm 0,0 UV-I 0 W/m 13,1 C 4,4 km/h (1 Bft)
20.07.2019 01:30 19,1 C 67 % 1012,9 hPa 0,0 mm 1,4 km/h (1 Bft) O 84 0 min 0,0 mm 0,0 UV-I 0 W/m 12,8 C 4,4 km/h (1 Bft)
20.07.2019 00:30 19,8 C 65 % 1013,1 hPa 0,0 mm 1,7 km/h (1 Bft) O 84 0 min 0,0 mm 0,0 UV-I 0 W/m 13,0 C 4,4 km/h (1 Bft)
19.07.2019 23:30 20,6 C 61 % 1013,3 hPa 0,0 mm 1,7 km/h (1 Bft) O 84 0 min 0,0 mm 0,0 UV-I 0 W/m 12,8 C 4,4 km/h (1 Bft)
19.07.2019 22:30 21,8 C 56 % 1013,4 hPa 0,0 mm 0,0 km/h (0 Bft) O 84 0 min 0,0 mm 0,0 UV-I 0 W/m 12,6 C 0,0 km/h (0 Bft)
19.07.2019 21:30 23,2 C 50 % 1013,2 hPa 0,0 mm 0,4 km/h (0 Bft) O 84 5 min 0,1 mm 0,0 UV-I 7 W/m 12,2 C 4,4 km/h (1 Bft)
19.07.2019 20:30 24,4 C 44 % 1013,2 hPa 0,0 mm 2,9 km/h (1 Bft) O 84 25 min 0,2 mm 0,0 UV-I 64 W/m 11,3 C 6,7 km/h (2 Bft)
19.07.2019 19:30 26,3 C 36 % 1012,9 hPa 0,0 mm 3,0 km/h (1 Bft) W-NW 291 60 min 0,3 mm 0,0 UV-I 164 W/m 10,0 C 8,9 km/h (2 Bft)
19.07.2019 18:30 26,3 C 38 % 1013,1 hPa 0,0 mm 4,7 km/h (1 Bft) N-NW 332 60 min 0,3 mm 0,4 UV-I 440 W/m 10,8 C 8,9 km/h (2 Bft)
19.07.2019 17:30 26,0 C 38 % 1013,5 hPa 0,0 mm 7,6 km/h (2 Bft) W 262 50 min 0,3 mm 1,0 UV-I 507 W/m 10,6 C 22,2 km/h (4 Bft)
19.07.2019 16:30 25,7 C 41 % 1013,7 hPa 0,0 mm 5,1 km/h (1 Bft) N 354 55 min 0,4 mm 0,8 UV-I 360 W/m 11,4 C 13,3 km/h (3 Bft)
19.07.2019 15:30 25,5 C 42 % 1013,7 hPa 0,0 mm 6,7 km/h (2 Bft) NW 305 50 min 0,5 mm 1,7 UV-I 475 W/m 11,6 C 22,2 km/h (4 Bft)
19.07.2019 14:30 24,8 C 47 % 1014,0 hPa 0,0 mm 5,1 km/h (1 Bft) NW 320 55 min 0,5 mm 3,4 UV-I 949 W/m 12,7 C 13,3 km/h (3 Bft)
19.07.2019 13:30 23,6 C 53 % 1014,0 hPa 0,0 mm 8,8 km/h (2 Bft) O 84 60 min 0,4 mm 2,6 UV-I 520 W/m 13,4 C 22,2 km/h (4 Bft)
19.07.2019 12:30 22,1 C 58 % 1014,1 hPa 0,0 mm 6,8 km/h (2 Bft) O 84 60 min 0,3 mm 3,0 UV-I 497 W/m 13,4 C 31,1 km/h (5 Bft)
19.07.2019 11:30 20,9 C 64 % 1014,0 hPa 0,0 mm 9,4 km/h (2 Bft) O 84 30 min 0,2 mm 1,3 UV-I 461 W/m 13,8 C 20,0 km/h (4 Bft)
19.07.2019 10:30 20,2 C 76 % 1014,0 hPa 0,0 mm 2,1 km/h (1 Bft) O 84 25 min 0,2 mm 0,6 UV-I 490 W/m 15,8 C 13,3 km/h (3 Bft)
19.07.2019 10:00 19,4 C 82 % 1014,0 hPa 0,0 mm 4,9 km/h (1 Bft) W-SW 242 0 min 0,2 mm 0,7 UV-I 314 W/m 16,2 C 11,1 km/h (2 Bft)
_ Min-Zeit 05:50 18:50 08:55 - 21:45 - - - - - - 19:15 21:45
Minimum _ 16,5 C 35 % 1010,4 hPa - 0,0 km/h (0 Bft) - - - - - - 9,8 C 0,0 km/h (0 Bft)
_ Max-Zeit 18:55 06:10 11:05 10:00 11:50 - - 10:05 15:00 14:00 14:00 10:00 12:30
Maximum _ 27,0 C 84 % 1014,1 hPa 0,0 mm 12,3 km/h
O (3 Bft)
- - 5 min 0,5 mm 4,1 UV-I 1124 W/m 16,2 C 31,1 km/h
O (5 Bft)
Durchschnitt _ 21,4 C 62 % 1012,9 hPa #0,0 mm 4,2 km/h (1 Bft) O - #5 min. #0,127 mm 0,0 UV-I 76 W/m 13,2 C 11,5 km/h (2 Bft)



© 1998 - 2019 www.pulheimwetter.de